createdAt,value
2018-07-17T00:02:10.432Z,21.90
2018-07-17T00:04:39.351Z,21.80
2018-07-17T00:07:08.249Z,21.70
2018-07-17T00:09:37.203Z,21.70
2018-07-17T00:12:06.140Z,21.70
2018-07-17T00:14:35.081Z,21.70
2018-07-17T00:17:03.969Z,21.70
2018-07-17T00:19:32.873Z,21.80
2018-07-17T00:22:01.753Z,21.70
2018-07-17T00:24:30.641Z,21.70
2018-07-17T00:26:59.576Z,21.60
2018-07-17T00:29:28.461Z,21.60
2018-07-17T00:31:57.317Z,21.60
2018-07-17T00:34:26.213Z,21.60
2018-07-17T00:36:55.118Z,21.60
2018-07-17T00:39:24.021Z,21.50
2018-07-17T00:41:52.896Z,21.50
2018-07-17T00:44:21.783Z,21.60
2018-07-17T00:49:19.370Z,21.70
2018-07-17T00:51:48.357Z,21.70
2018-07-17T00:54:17.248Z,21.70
2018-07-17T00:56:46.158Z,21.70
2018-07-17T00:59:15.048Z,21.60
2018-07-17T01:01:49.523Z,21.50
2018-07-17T01:04:23.880Z,21.50
2018-07-17T01:06:58.306Z,21.40
2018-07-17T01:09:32.729Z,21.30
2018-07-17T01:12:07.098Z,21.30
2018-07-17T01:14:48.249Z,21.30
2018-07-17T01:17:18.042Z,21.30
2018-07-17T01:19:46.928Z,21.20
2018-07-17T01:22:15.817Z,21.30
2018-07-17T01:24:44.705Z,21.20
2018-07-17T01:27:13.644Z,21.20
2018-07-17T01:29:42.705Z,21.10
2018-07-17T01:32:11.916Z,21.10
2018-07-17T01:34:40.836Z,21.10
2018-07-17T01:37:10.099Z,21.10
2018-07-17T01:39:39.021Z,21.00
2018-07-17T01:42:09.045Z,21.00
2018-07-17T01:44:37.993Z,21.10
2018-07-17T01:47:06.910Z,21.00
2018-07-17T01:49:35.847Z,21.00
2018-07-17T01:52:04.712Z,21.00
2018-07-17T01:54:33.602Z,21.00
2018-07-17T01:57:02.502Z,21.00
2018-07-17T01:59:31.347Z,21.20
2018-07-17T02:02:00.218Z,21.30
2018-07-17T02:04:29.080Z,21.30
2018-07-17T02:06:57.984Z,21.30
2018-07-17T02:09:26.873Z,21.20
2018-07-17T02:11:55.749Z,21.10
2018-07-17T02:14:24.657Z,21.10
2018-07-17T02:16:53.550Z,21.10
2018-07-17T02:19:22.437Z,21.10
2018-07-17T02:21:51.324Z,21.10
2018-07-17T02:24:20.196Z,20.90
2018-07-17T02:26:49.184Z,20.90
2018-07-17T02:29:18.073Z,20.90
2018-07-17T02:31:46.920Z,20.80
2018-07-17T02:34:15.811Z,20.80
2018-07-17T02:36:44.681Z,20.80
2018-07-17T02:39:13.571Z,20.80
2018-07-17T02:41:42.530Z,20.80
2018-07-17T02:44:11.470Z,20.80
2018-07-17T02:49:08.962Z,20.80
2018-07-17T02:51:37.892Z,20.80
2018-07-17T02:54:06.799Z,20.80
2018-07-17T02:56:35.771Z,20.80
2018-07-17T02:59:04.690Z,20.80
2018-07-17T03:01:33.573Z,20.80
2018-07-17T03:04:02.445Z,20.90
2018-07-17T03:06:31.320Z,20.80
2018-07-17T03:09:00.194Z,20.80
2018-07-17T03:11:29.067Z,20.90
2018-07-17T03:13:57.927Z,20.90
2018-07-17T03:16:26.813Z,20.90
2018-07-17T03:18:55.728Z,20.80
2018-07-17T03:21:24.580Z,20.80
2018-07-17T03:23:53.622Z,20.80
2018-07-17T03:26:22.481Z,20.70
2018-07-17T03:28:51.353Z,20.70
2018-07-17T03:31:20.348Z,20.60
2018-07-17T03:33:49.267Z,20.60
2018-07-17T03:36:18.168Z,20.60
2018-07-17T03:38:47.001Z,20.60
2018-07-17T03:41:15.888Z,20.60
2018-07-17T03:43:44.803Z,20.50
2018-07-17T03:46:13.701Z,20.50
2018-07-17T03:48:42.584Z,20.50
2018-07-17T03:51:11.505Z,20.60
2018-07-17T03:53:40.536Z,20.70
2018-07-17T03:56:09.429Z,20.60
2018-07-17T03:58:38.356Z,20.70
2018-07-17T04:01:07.298Z,20.70
2018-07-17T04:03:36.239Z,20.60
2018-07-17T04:06:05.133Z,20.60
2018-07-17T04:08:34.021Z,20.60
2018-07-17T04:11:02.969Z,20.60
2018-07-17T04:13:31.925Z,20.60
2018-07-17T04:16:00.723Z,20.50
2018-07-17T04:18:29.600Z,20.50
2018-07-17T04:20:58.493Z,20.60
2018-07-17T04:23:27.480Z,20.60
2018-07-17T04:25:56.345Z,20.60
2018-07-17T04:28:25.204Z,20.70
2018-07-17T04:30:54.097Z,20.60
2018-07-17T04:33:22.984Z,20.70
2018-07-17T04:35:51.940Z,20.70
2018-07-17T04:38:20.981Z,20.70
2018-07-17T04:40:49.863Z,20.70
2018-07-17T04:43:18.788Z,20.70
2018-07-17T04:45:47.944Z,20.80
2018-07-17T04:48:16.991Z,20.80
2018-07-17T04:50:45.921Z,20.90
2018-07-17T04:53:14.908Z,21.10
2018-07-17T04:55:43.845Z,21.10
2018-07-17T04:58:12.777Z,21.30
2018-07-17T05:00:41.750Z,21.40
2018-07-17T05:03:10.701Z,21.50
2018-07-17T05:05:39.622Z,21.50
2018-07-17T05:08:08.587Z,21.70
2018-07-17T05:10:37.504Z,21.80
2018-07-17T05:13:06.635Z,21.80
2018-07-17T05:15:35.623Z,21.70
2018-07-17T05:18:04.580Z,21.80
2018-07-17T05:20:33.452Z,21.90
2018-07-17T05:23:02.378Z,21.90
2018-07-17T05:25:31.312Z,21.80
2018-07-17T05:28:00.201Z,21.70
2018-07-17T05:30:29.120Z,21.60
2018-07-17T05:32:58.049Z,21.60
2018-07-17T05:35:26.974Z,21.50
2018-07-17T05:37:55.838Z,21.50
2018-07-17T05:40:24.713Z,21.50
2018-07-17T05:42:54.405Z,21.50
2018-07-17T05:45:23.287Z,21.60
2018-07-17T05:47:52.172Z,21.70
2018-07-17T05:52:49.556Z,21.80
2018-07-17T05:55:18.436Z,21.80
2018-07-17T05:57:47.305Z,21.70
2018-07-17T06:00:16.233Z,21.70
2018-07-17T06:02:45.165Z,21.80
2018-07-17T06:05:14.160Z,21.90
2018-07-17T06:07:43.100Z,21.80
2018-07-17T06:10:12.102Z,21.80
2018-07-17T06:12:41.063Z,21.80
2018-07-17T06:15:09.979Z,21.80
2018-07-17T06:17:38.926Z,21.90
2018-07-17T06:20:08.277Z,21.90
2018-07-17T06:22:37.239Z,21.90
2018-07-17T06:25:06.978Z,21.90
2018-07-17T06:27:35.916Z,21.90
2018-07-17T06:30:06.328Z,21.90
2018-07-17T06:32:35.228Z,21.90
2018-07-17T06:35:04.257Z,21.90
2018-07-17T06:37:33.125Z,22.00
2018-07-17T06:40:02.005Z,22.00
2018-07-17T06:42:30.897Z,21.90
2018-07-17T06:44:59.832Z,21.90
2018-07-17T06:47:28.945Z,21.90
2018-07-17T06:49:57.908Z,21.90
2018-07-17T06:52:26.780Z,21.90
2018-07-17T06:54:55.673Z,22.00
2018-07-17T06:57:24.600Z,21.90
2018-07-17T06:59:53.614Z,21.90
2018-07-17T07:02:22.466Z,21.90
2018-07-17T07:04:51.381Z,22.00
2018-07-17T07:07:20.313Z,21.90
2018-07-17T07:09:49.210Z,21.90
2018-07-17T07:12:18.165Z,22.00
2018-07-17T07:14:47.049Z,22.00
2018-07-17T07:17:16.011Z,22.00
2018-07-17T07:19:44.998Z,22.00
2018-07-17T07:22:13.903Z,22.00
2018-07-17T07:24:42.933Z,22.00
2018-07-17T07:27:11.868Z,21.90
2018-07-17T07:29:40.785Z,21.90
2018-07-17T07:32:09.706Z,22.00
2018-07-17T07:34:38.629Z,22.00
2018-07-17T07:37:07.557Z,21.90
2018-07-17T07:39:36.478Z,21.90
2018-07-17T07:42:05.757Z,21.90
2018-07-17T07:44:34.644Z,22.00
2018-07-17T07:47:03.518Z,22.00
2018-07-17T07:49:32.401Z,22.00
2018-07-17T07:52:01.272Z,22.00
2018-07-17T07:54:30.148Z,21.90
2018-07-17T07:56:58.996Z,21.90
2018-07-17T07:59:27.878Z,22.10
2018-07-17T08:01:56.773Z,22.30
2018-07-17T08:04:25.689Z,22.40
2018-07-17T08:06:54.523Z,22.40
2018-07-17T08:09:23.420Z,22.50
2018-07-17T08:11:52.389Z,22.40
2018-07-17T08:14:21.420Z,22.30
2018-07-17T08:16:50.333Z,22.20
2018-07-17T08:19:19.372Z,21.90
2018-07-17T08:21:48.264Z,21.90
2018-07-17T08:24:17.177Z,22.00
2018-07-17T08:26:46.045Z,22.00
2018-07-17T08:29:15.246Z,21.80
2018-07-17T08:31:44.166Z,21.80
2018-07-17T08:34:13.571Z,21.80
2018-07-17T08:36:42.596Z,22.20
2018-07-17T08:39:11.552Z,22.50
2018-07-17T08:41:40.519Z,22.30
2018-07-17T08:44:09.604Z,22.30
2018-07-17T08:46:39.368Z,22.30
2018-07-17T08:49:08.361Z,22.30
2018-07-17T08:51:43.812Z,22.20
2018-07-17T08:54:12.756Z,22.00
2018-07-17T08:59:10.252Z,22.00
2018-07-17T09:04:07.923Z,21.80
2018-07-17T09:06:36.832Z,21.80
2018-07-17T09:09:06.461Z,21.90
2018-07-17T09:11:35.967Z,21.90
2018-07-17T09:14:04.942Z,22.30
2018-07-17T09:16:33.796Z,22.40
2018-07-17T09:19:02.829Z,22.90
2018-07-17T09:21:31.846Z,22.80
2018-07-17T09:24:00.701Z,22.20
2018-07-17T09:26:29.618Z,21.90
2018-07-17T09:31:27.081Z,22.40
2018-07-17T09:33:55.962Z,22.20
2018-07-17T09:36:24.844Z,22.20
2018-07-17T09:38:53.767Z,22.10
2018-07-17T09:41:22.607Z,21.90
2018-07-17T09:43:51.495Z,21.70
2018-07-17T09:46:20.385Z,21.70
2018-07-17T09:48:49.245Z,21.60
2018-07-17T09:51:18.136Z,21.60
2018-07-17T09:53:47.012Z,21.70
2018-07-17T09:56:15.864Z,21.70
2018-07-17T09:58:44.745Z,22.00
2018-07-17T10:01:19.197Z,21.80
2018-07-17T10:03:48.049Z,21.70
2018-07-17T10:06:16.958Z,21.90
2018-07-17T10:08:45.825Z,21.90
2018-07-17T10:11:14.733Z,21.80
2018-07-17T10:13:43.718Z,22.00
2018-07-17T10:16:12.660Z,21.80
2018-07-17T10:18:41.595Z,21.70
2018-07-17T10:21:10.628Z,21.70
2018-07-17T10:23:39.560Z,21.70
2018-07-17T10:26:08.509Z,21.70
2018-07-17T10:28:37.549Z,21.90
2018-07-17T10:31:06.612Z,21.90
2018-07-17T10:33:35.525Z,21.80
2018-07-17T10:36:04.427Z,21.60
2018-07-17T10:38:33.348Z,21.70
2018-07-17T10:41:02.148Z,22.40
2018-07-17T10:43:31.052Z,22.50
2018-07-17T10:45:59.957Z,22.70
2018-07-17T10:48:28.854Z,22.30
2018-07-17T10:50:57.741Z,22.70
2018-07-17T10:53:26.647Z,22.90
2018-07-17T10:55:55.521Z,23.90
2018-07-17T10:58:24.410Z,23.10
2018-07-17T11:00:53.415Z,23.20
2018-07-17T11:03:22.294Z,22.30
2018-07-17T11:05:51.193Z,21.90
2018-07-17T11:08:20.112Z,21.70
2018-07-17T11:10:48.997Z,21.80
2018-07-17T11:13:17.877Z,21.80
2018-07-17T11:15:46.759Z,21.70
2018-07-17T11:18:15.672Z,21.70
2018-07-17T11:20:44.536Z,21.70
2018-07-17T11:23:13.481Z,22.00
2018-07-17T11:25:42.408Z,22.30
2018-07-17T11:28:11.416Z,23.40
2018-07-17T11:30:40.359Z,24.00
2018-07-17T11:33:09.250Z,23.20
2018-07-17T11:35:38.297Z,22.40
2018-07-17T11:38:07.269Z,22.10
2018-07-17T11:40:36.177Z,23.00
2018-07-17T11:43:05.151Z,22.50
2018-07-17T11:45:34.043Z,22.20
2018-07-17T11:48:02.909Z,22.60
2018-07-17T11:50:31.761Z,23.10
2018-07-17T11:53:00.684Z,24.10
2018-07-17T11:55:29.985Z,23.90
2018-07-17T11:57:58.837Z,22.70
2018-07-17T12:00:27.703Z,22.50
2018-07-17T12:02:56.727Z,23.60
2018-07-17T12:05:25.660Z,23.00
2018-07-17T12:07:54.768Z,23.00
2018-07-17T12:10:23.661Z,22.20
2018-07-17T12:12:52.616Z,21.90
2018-07-17T12:15:21.481Z,21.90
2018-07-17T12:17:50.375Z,22.00
2018-07-17T12:20:19.444Z,23.00
2018-07-17T12:22:48.250Z,23.00
2018-07-17T12:25:17.274Z,22.90
2018-07-17T12:27:46.177Z,22.70
2018-07-17T12:30:15.137Z,22.10
2018-07-17T12:32:44.052Z,22.00
2018-07-17T12:35:13.021Z,21.90
2018-07-17T12:37:42.061Z,22.20
2018-07-17T12:40:11.005Z,22.50
2018-07-17T12:42:40.002Z,22.90
2018-07-17T12:45:08.940Z,22.60
2018-07-17T12:47:37.962Z,22.10
2018-07-17T12:50:06.978Z,22.00
2018-07-17T12:52:35.870Z,23.50
2018-07-17T12:55:04.907Z,25.20
2018-07-17T12:57:33.804Z,26.10
2018-07-17T13:00:02.750Z,25.10
2018-07-17T13:02:31.639Z,23.30
2018-07-17T13:05:00.549Z,22.90
2018-07-17T13:07:29.469Z,22.60
2018-07-17T13:09:58.392Z,22.30
2018-07-17T13:12:27.353Z,23.50
2018-07-17T13:14:56.245Z,23.10
2018-07-17T13:17:25.210Z,23.00
2018-07-17T13:19:54.168Z,24.00
2018-07-17T13:22:23.041Z,26.10
2018-07-17T13:24:51.960Z,24.30
2018-07-17T13:27:20.856Z,22.70
2018-07-17T13:29:49.848Z,22.30
2018-07-17T13:32:18.739Z,23.70
2018-07-17T13:34:47.941Z,23.90
2018-07-17T13:37:16.932Z,23.00
2018-07-17T13:39:45.833Z,22.70
2018-07-17T13:42:14.814Z,24.90
2018-07-17T13:44:43.865Z,26.60
2018-07-17T13:47:12.793Z,25.50
2018-07-17T13:49:41.784Z,24.80
2018-07-17T13:52:10.783Z,23.90
2018-07-17T13:54:39.877Z,23.30
2018-07-17T13:57:08.869Z,22.80
2018-07-17T13:59:37.856Z,22.40
2018-07-17T14:02:07.031Z,22.30
2018-07-17T14:04:36.372Z,22.00
2018-07-17T14:07:05.342Z,22.20
2018-07-17T14:09:34.232Z,22.10
2018-07-17T14:12:03.133Z,24.20
2018-07-17T14:14:31.981Z,24.50
2018-07-17T14:17:00.875Z,23.30
2018-07-17T14:19:29.765Z,22.80
2018-07-17T14:21:58.661Z,22.90
2018-07-17T14:24:27.536Z,23.10
2018-07-17T14:26:56.427Z,24.10
2018-07-17T14:29:25.370Z,23.30
2018-07-17T14:31:54.244Z,23.00
2018-07-17T14:34:23.109Z,22.90
2018-07-17T14:36:52.008Z,23.10
2018-07-17T14:39:20.903Z,22.60
2018-07-17T14:41:49.830Z,23.30
2018-07-17T14:44:18.702Z,22.70
2018-07-17T14:46:47.588Z,22.40
2018-07-17T14:49:16.504Z,24.80
2018-07-17T14:51:45.416Z,25.20
2018-07-17T14:54:14.370Z,25.50
2018-07-17T14:56:43.350Z,25.70
2018-07-17T14:59:12.272Z,26.90
2018-07-17T15:01:41.184Z,27.40
2018-07-17T15:04:10.118Z,25.20
2018-07-17T15:06:39.067Z,23.30
2018-07-17T15:09:08.916Z,23.00
2018-07-17T15:11:37.877Z,22.80
2018-07-17T15:14:06.872Z,22.70
2018-07-17T15:16:35.732Z,24.90
2018-07-17T15:19:04.919Z,24.30
2018-07-17T15:21:33.875Z,23.20
2018-07-17T15:24:02.760Z,22.50
2018-07-17T15:26:31.688Z,22.30
2018-07-17T15:29:00.553Z,22.10
2018-07-17T15:31:29.439Z,22.10
2018-07-17T15:33:58.306Z,22.30
2018-07-17T15:36:27.493Z,22.10
2018-07-17T15:38:56.377Z,22.10
2018-07-17T15:41:25.254Z,22.20
2018-07-17T15:43:54.133Z,22.20
2018-07-17T15:46:23.021Z,22.10
2018-07-17T15:48:51.884Z,22.10
2018-07-17T15:51:20.789Z,22.00
2018-07-17T15:53:49.661Z,22.00
2018-07-17T15:56:18.547Z,22.00
2018-07-17T15:58:47.476Z,21.90
2018-07-17T16:01:16.377Z,21.90
2018-07-17T16:03:45.295Z,22.00
2018-07-17T16:06:14.290Z,21.90
2018-07-17T16:08:43.150Z,22.00
2018-07-17T16:11:12.074Z,21.90
2018-07-17T16:13:41.174Z,21.90
2018-07-17T16:16:10.162Z,21.90
2018-07-17T16:18:39.133Z,22.00
2018-07-17T16:21:08.089Z,22.00
2018-07-17T16:23:37.014Z,21.90
2018-07-17T16:26:06.875Z,22.10
2018-07-17T16:28:35.689Z,22.10
2018-07-17T16:31:04.538Z,22.30
2018-07-17T16:33:33.382Z,22.40
2018-07-17T16:36:02.232Z,22.30
2018-07-17T16:38:31.061Z,22.00
2018-07-17T16:40:59.916Z,22.00
2018-07-17T16:43:28.784Z,22.00
2018-07-17T16:45:57.612Z,22.00
2018-07-17T16:48:26.474Z,22.00
2018-07-17T16:50:55.300Z,22.10
2018-07-17T16:53:24.164Z,22.20
2018-07-17T16:55:52.984Z,23.40
2018-07-17T16:58:21.839Z,22.70
2018-07-17T17:00:50.698Z,22.40
2018-07-17T17:03:19.551Z,22.70
2018-07-17T17:05:48.438Z,23.10
2018-07-17T17:08:17.273Z,22.90
2018-07-17T17:10:46.118Z,22.70
2018-07-17T17:13:15.017Z,22.40
2018-07-17T17:15:43.957Z,22.70
2018-07-17T17:18:12.819Z,23.00
2018-07-17T17:20:41.712Z,22.70
2018-07-17T17:23:10.686Z,22.40
2018-07-17T17:25:39.573Z,22.30
2018-07-17T17:28:08.467Z,22.30
2018-07-17T17:30:37.356Z,22.10
2018-07-17T17:33:06.242Z,22.10
2018-07-17T17:35:35.216Z,22.20
2018-07-17T17:38:04.078Z,22.30
2018-07-17T17:40:32.972Z,22.20
2018-07-17T17:43:01.998Z,22.50
2018-07-17T17:45:30.899Z,22.60
2018-07-17T17:47:59.764Z,22.40
2018-07-17T17:50:28.658Z,22.50
2018-07-17T17:52:57.565Z,22.40
2018-07-17T17:55:26.453Z,22.30
2018-07-17T17:57:55.328Z,22.20
2018-07-17T18:00:24.205Z,22.30
2018-07-17T18:02:53.060Z,22.70
2018-07-17T18:05:21.965Z,22.40
2018-07-17T18:07:50.793Z,22.40
2018-07-17T18:10:19.632Z,22.40
2018-07-17T18:12:48.527Z,22.60
2018-07-17T18:15:17.468Z,22.60
2018-07-17T18:17:46.369Z,22.50
2018-07-17T18:20:15.264Z,22.60
2018-07-17T18:22:44.224Z,22.60
2018-07-17T18:25:13.175Z,22.60
2018-07-17T18:27:42.121Z,22.90
2018-07-17T18:30:11.064Z,22.70
2018-07-17T18:32:40.169Z,22.70
2018-07-17T18:35:09.121Z,22.60
2018-07-17T18:37:38.118Z,22.50
2018-07-17T18:40:07.042Z,22.70
2018-07-17T18:42:36.219Z,22.60
2018-07-17T18:45:05.161Z,22.60
2018-07-17T18:47:34.067Z,22.60
2018-07-17T18:50:12.585Z,22.70
2018-07-17T18:52:31.869Z,22.60
2018-07-17T18:55:00.929Z,22.70
2018-07-17T18:57:29.782Z,22.60
2018-07-17T18:59:58.646Z,22.50
2018-07-17T19:02:27.468Z,22.50
2018-07-17T19:04:56.320Z,22.40
2018-07-17T19:07:25.178Z,22.50
2018-07-17T19:09:54.017Z,22.40
2018-07-17T19:12:22.931Z,22.40
2018-07-17T19:14:51.761Z,22.50
2018-07-17T19:17:20.624Z,22.50
2018-07-17T19:19:49.496Z,22.40
2018-07-17T19:22:18.369Z,22.50
2018-07-17T19:24:47.247Z,23.00
2018-07-17T19:27:16.124Z,22.90
2018-07-17T19:29:44.992Z,23.10
2018-07-17T19:32:13.853Z,23.30
2018-07-17T19:34:42.706Z,23.80
2018-07-17T19:37:11.631Z,23.50
2018-07-17T19:39:40.527Z,23.10
2018-07-17T19:42:09.399Z,23.10
2018-07-17T19:44:38.314Z,23.00
2018-07-17T19:47:07.261Z,22.80
2018-07-17T19:49:36.175Z,23.00
2018-07-17T19:52:05.063Z,23.30
2018-07-17T19:54:33.908Z,23.40
2018-07-17T19:57:02.794Z,23.40
2018-07-17T19:59:31.649Z,23.10
2018-07-17T20:02:00.507Z,22.80
2018-07-17T20:04:29.357Z,23.00
2018-07-17T20:06:58.278Z,22.90
2018-07-17T20:09:37.902Z,22.80
2018-07-17T20:12:06.821Z,23.00
2018-07-17T20:14:36.048Z,22.90
2018-07-17T20:17:04.946Z,23.10
2018-07-17T20:19:33.778Z,22.90
2018-07-17T20:22:02.620Z,22.90
2018-07-17T20:24:31.497Z,22.80
2018-07-17T20:27:00.369Z,22.80
2018-07-17T20:29:29.266Z,22.60
2018-07-17T20:31:58.153Z,22.70
2018-07-17T20:34:27.024Z,22.90
2018-07-17T20:36:55.884Z,22.70
2018-07-17T20:39:24.724Z,22.60
2018-07-17T20:41:53.596Z,22.70
2018-07-17T20:44:22.484Z,22.80
2018-07-17T20:46:51.389Z,22.60
2018-07-17T20:49:20.260Z,22.40
2018-07-17T20:51:49.184Z,22.30
2018-07-17T20:54:18.052Z,22.30
2018-07-17T20:56:46.896Z,22.30
2018-07-17T20:59:15.783Z,22.20
2018-07-17T21:01:44.664Z,22.20
2018-07-17T21:04:13.516Z,22.20
2018-07-17T21:06:42.467Z,22.20
2018-07-17T21:09:12.187Z,22.30
2018-07-17T21:11:41.349Z,22.50
2018-07-17T21:14:10.333Z,22.50
2018-07-17T21:16:39.326Z,22.50
2018-07-17T21:19:08.306Z,22.50
2018-07-17T21:21:37.266Z,22.70
2018-07-17T21:24:06.238Z,22.70
2018-07-17T21:26:35.105Z,22.80
2018-07-17T21:29:04.041Z,23.00
2018-07-17T21:31:32.904Z,23.10
2018-07-17T21:34:01.767Z,23.00
2018-07-17T21:36:30.635Z,23.00
2018-07-17T21:38:59.469Z,23.00
2018-07-17T21:41:28.329Z,22.90
2018-07-17T21:43:57.222Z,22.80
2018-07-17T21:46:26.113Z,22.70
2018-07-17T21:48:54.985Z,22.90
2018-07-17T21:53:52.428Z,22.90
2018-07-17T21:56:21.269Z,22.90
2018-07-17T21:58:50.148Z,22.80
2018-07-17T22:01:19.053Z,22.90
2018-07-17T22:03:47.936Z,22.90
2018-07-17T22:06:16.825Z,22.90
2018-07-17T22:08:45.701Z,22.60
2018-07-17T22:11:14.597Z,22.60
2018-07-17T22:13:43.505Z,22.60
2018-07-17T22:16:12.409Z,22.60
2018-07-17T22:18:41.365Z,22.70
2018-07-17T22:21:10.293Z,22.60
2018-07-17T22:23:39.208Z,22.70
2018-07-17T22:26:08.162Z,22.90
2018-07-17T22:28:37.141Z,22.90
2018-07-17T22:31:06.005Z,22.70
2018-07-17T22:33:34.849Z,22.50
2018-07-17T22:36:03.706Z,22.50
2018-07-17T22:38:32.552Z,22.50
2018-07-17T22:41:01.568Z,22.50
2018-07-17T22:43:30.421Z,22.60
2018-07-17T22:45:59.297Z,22.60
2018-07-17T22:48:28.154Z,22.70
2018-07-17T22:50:57.000Z,22.50
2018-07-17T22:53:25.838Z,22.40
2018-07-17T22:55:54.694Z,22.40
2018-07-17T22:58:23.545Z,22.60
2018-07-17T23:00:52.402Z,22.70
2018-07-17T23:03:21.300Z,22.80
2018-07-17T23:05:50.152Z,22.70
2018-07-17T23:08:19.009Z,22.80
2018-07-17T23:10:47.876Z,22.90
2018-07-17T23:13:16.726Z,22.80
2018-07-17T23:15:45.586Z,22.70
2018-07-17T23:18:14.441Z,22.70
2018-07-17T23:20:43.289Z,22.80
2018-07-17T23:23:12.160Z,22.80
2018-07-17T23:25:41.061Z,22.60
2018-07-17T23:28:09.965Z,22.50
2018-07-17T23:30:39.678Z,22.50
2018-07-17T23:33:08.564Z,22.50
2018-07-17T23:35:37.461Z,22.40
2018-07-17T23:38:06.429Z,22.40
2018-07-17T23:40:35.281Z,22.50
2018-07-17T23:43:04.132Z,22.40
2018-07-17T23:45:32.994Z,22.50
2018-07-17T23:48:01.848Z,22.60
2018-07-17T23:50:30.706Z,22.70
2018-07-17T23:52:59.567Z,22.70
2018-07-17T23:55:28.416Z,22.70
2018-07-17T23:57:57.261Z,22.60
